sensor_id;sensor_type;location;lat;lon;timestamp;temperature;humidity
52869;DHT22;39100;53.480;6.158;2023-06-26T00:01:58;22.50;99.90
52869;DHT22;39100;53.480;6.158;2023-06-26T00:04:23;22.50;99.90
52869;DHT22;39100;53.480;6.158;2023-06-26T00:06:49;22.50;99.90
52869;DHT22;39100;53.480;6.158;2023-06-26T00:09:14;22.50;99.90
52869;DHT22;39100;53.480;6.158;2023-06-26T00:11:40;22.40;99.90
52869;DHT22;39100;53.480;6.158;2023-06-26T00:14:05;22.40;99.90
52869;DHT22;39100;53.480;6.158;2023-06-26T00:16:31;22.40;99.90
52869;DHT22;39100;53.480;6.158;2023-06-26T00:18:57;22.40;99.90
52869;DHT22;39100;53.480;6.158;2023-06-26T00:21:24;22.40;99.90
52869;DHT22;39100;53.480;6.158;2023-06-26T00:23:51;22.50;99.90
52869;DHT22;39100;53.480;6.158;2023-06-26T00:26:16;22.50;99.90
52869;DHT22;39100;53.480;6.158;2023-06-26T00:28:42;22.50;99.90
52869;DHT22;39100;53.480;6.158;2023-06-26T00:31:07;22.50;99.90
52869;DHT22;39100;53.480;6.158;2023-06-26T00:33:33;22.50;99.90
52869;DHT22;39100;53.480;6.158;2023-06-26T00:35:59;22.40;99.90
52869;DHT22;39100;53.480;6.158;2023-06-26T00:38:24;22.40;99.90
52869;DHT22;39100;53.480;6.158;2023-06-26T00:40:50;22.40;99.90
52869;DHT22;39100;53.480;6.158;2023-06-26T00:43:16;22.40;99.90
52869;DHT22;39100;53.480;6.158;2023-06-26T00:45:41;22.40;99.90
52869;DHT22;39100;53.480;6.158;2023-06-26T00:48:07;22.40;99.90
52869;DHT22;39100;53.480;6.158;2023-06-26T00:50:33;22.50;99.90
52869;DHT22;39100;53.480;6.158;2023-06-26T00:52:59;22.30;99.90
52869;DHT22;39100;53.480;6.158;2023-06-26T00:55:27;22.30;99.90
52869;DHT22;39100;53.480;6.158;2023-06-26T00:57:54;22.40;99.90
52869;DHT22;39100;53.480;6.158;2023-06-26T01:00:20;22.30;99.90
52869;DHT22;39100;53.480;6.158;2023-06-26T01:02:45;22.30;99.90
52869;DHT22;39100;53.480;6.158;2023-06-26T01:05:13;22.30;99.90
52869;DHT22;39100;53.480;6.158;2023-06-26T01:07:49;22.20;99.90
52869;DHT22;39100;53.480;6.158;2023-06-26T01:10:15;22.30;99.90
52869;DHT22;39100;53.480;6.158;2023-06-26T01:12:41;22.30;99.90
52869;DHT22;39100;53.480;6.158;2023-06-26T01:15:07;22.20;99.90
52869;DHT22;39100;53.480;6.158;2023-06-26T01:17:33;22.20;99.90
52869;DHT22;39100;53.480;6.158;2023-06-26T01:20:00;22.20;99.90
52869;DHT22;39100;53.480;6.158;2023-06-26T01:25:48;22.30;99.90
52869;DHT22;39100;53.480;6.158;2023-06-26T01:28:18;22.10;99.90
52869;DHT22;39100;53.480;6.158;2023-06-26T01:30:45;22.10;99.90
52869;DHT22;39100;53.480;6.158;2023-06-26T01:33:12;22.20;99.90
52869;DHT22;39100;53.480;6.158;2023-06-26T01:35:39;22.20;99.90
52869;DHT22;39100;53.480;6.158;2023-06-26T01:38:16;22.20;99.90
52869;DHT22;39100;53.480;6.158;2023-06-26T01:40:42;22.30;99.90
52869;DHT22;39100;53.480;6.158;2023-06-26T01:46:09;22.10;99.90
52869;DHT22;39100;53.480;6.158;2023-06-26T01:48:59;22.10;99.90
52869;DHT22;39100;53.480;6.158;2023-06-26T01:51:32;22.10;99.90
52869;DHT22;39100;53.480;6.158;2023-06-26T01:54:00;22.00;99.90
52869;DHT22;39100;53.480;6.158;2023-06-26T01:56:28;22.00;99.90
52869;DHT22;39100;53.480;6.158;2023-06-26T01:58:54;22.00;99.90
52869;DHT22;39100;53.480;6.158;2023-06-26T02:01:21;22.00;99.90
52869;DHT22;39100;53.480;6.158;2023-06-26T02:03:48;22.00;99.90
52869;DHT22;39100;53.480;6.158;2023-06-26T02:06:13;21.90;99.90
52869;DHT22;39100;53.480;6.158;2023-06-26T02:08:39;21.90;99.90
52869;DHT22;39100;53.480;6.158;2023-06-26T02:11:05;21.80;99.90
52869;DHT22;39100;53.480;6.158;2023-06-26T02:13:30;21.90;99.90
52869;DHT22;39100;53.480;6.158;2023-06-26T02:15:56;21.80;99.90
52869;DHT22;39100;53.480;6.158;2023-06-26T02:18:22;21.80;99.90
52869;DHT22;39100;53.480;6.158;2023-06-26T02:20:48;21.70;99.90
52869;DHT22;39100;53.480;6.158;2023-06-26T02:23:14;21.80;99.90
52869;DHT22;39100;53.480;6.158;2023-06-26T02:25:40;21.60;99.90
52869;DHT22;39100;53.480;6.158;2023-06-26T02:28:05;21.50;99.90
52869;DHT22;39100;53.480;6.158;2023-06-26T02:30:31;21.50;99.90
52869;DHT22;39100;53.480;6.158;2023-06-26T02:32:56;21.60;99.90
52869;DHT22;39100;53.480;6.158;2023-06-26T02:35:22;21.40;99.90
52869;DHT22;39100;53.480;6.158;2023-06-26T02:37:47;21.30;99.90
52869;DHT22;39100;53.480;6.158;2023-06-26T02:40:13;21.30;99.90
52869;DHT22;39100;53.480;6.158;2023-06-26T02:42:38;21.20;99.90
52869;DHT22;39100;53.480;6.158;2023-06-26T02:45:04;21.50;99.90
52869;DHT22;39100;53.480;6.158;2023-06-26T02:47:30;21.20;99.90
52869;DHT22;39100;53.480;6.158;2023-06-26T02:49:55;21.10;99.90
52869;DHT22;39100;53.480;6.158;2023-06-26T02:52:21;21.10;99.90
52869;DHT22;39100;53.480;6.158;2023-06-26T02:54:47;21.00;99.90
52869;DHT22;39100;53.480;6.158;2023-06-26T02:57:12;21.00;99.90
52869;DHT22;39100;53.480;6.158;2023-06-26T02:59:40;21.00;99.90
52869;DHT22;39100;53.480;6.158;2023-06-26T03:02:05;20.90;99.90
52869;DHT22;39100;53.480;6.158;2023-06-26T03:04:31;20.90;99.90
52869;DHT22;39100;53.480;6.158;2023-06-26T03:06:56;20.90;99.90
52869;DHT22;39100;53.480;6.158;2023-06-26T03:09:22;21.30;99.90
52869;DHT22;39100;53.480;6.158;2023-06-26T03:11:48;20.90;99.90
52869;DHT22;39100;53.480;6.158;2023-06-26T03:14:13;21.00;99.90
52869;DHT22;39100;53.480;6.158;2023-06-26T03:16:39;21.00;99.90
52869;DHT22;39100;53.480;6.158;2023-06-26T03:19:05;21.00;99.90
52869;DHT22;39100;53.480;6.158;2023-06-26T03:21:32;21.00;99.90
52869;DHT22;39100;53.480;6.158;2023-06-26T03:23:58;21.00;99.90
52869;DHT22;39100;53.480;6.158;2023-06-26T03:26:23;21.10;99.90
52869;DHT22;39100;53.480;6.158;2023-06-26T03:28:53;21.00;99.90
52869;DHT22;39100;53.480;6.158;2023-06-26T03:31:19;21.50;99.90
52869;DHT22;39100;53.480;6.158;2023-06-26T03:33:44;21.10;99.90
52869;DHT22;39100;53.480;6.158;2023-06-26T03:36:10;21.10;99.90
52869;DHT22;39100;53.480;6.158;2023-06-26T03:38:36;21.10;99.90
52869;DHT22;39100;53.480;6.158;2023-06-26T03:41:02;21.10;99.90
52869;DHT22;39100;53.480;6.158;2023-06-26T03:43:27;21.10;99.90
52869;DHT22;39100;53.480;6.158;2023-06-26T03:45:53;21.10;99.90
52869;DHT22;39100;53.480;6.158;2023-06-26T03:48:19;21.20;99.90
52869;DHT22;39100;53.480;6.158;2023-06-26T03:50:45;21.30;99.90
52869;DHT22;39100;53.480;6.158;2023-06-26T03:53:10;21.10;99.90
52869;DHT22;39100;53.480;6.158;2023-06-26T03:55:37;21.10;99.90
52869;DHT22;39100;53.480;6.158;2023-06-26T03:58:04;21.10;99.90
52869;DHT22;39100;53.480;6.158;2023-06-26T04:00:29;21.10;99.90
52869;DHT22;39100;53.480;6.158;2023-06-26T04:02:55;21.20;99.90
52869;DHT22;39100;53.480;6.158;2023-06-26T04:05:20;21.20;99.90
52869;DHT22;39100;53.480;6.158;2023-06-26T04:07:49;21.20;99.90
52869;DHT22;39100;53.480;6.158;2023-06-26T04:10:14;21.20;99.90
52869;DHT22;39100;53.480;6.158;2023-06-26T04:12:40;21.20;99.90
52869;DHT22;39100;53.480;6.158;2023-06-26T04:15:06;21.20;99.90
52869;DHT22;39100;53.480;6.158;2023-06-26T04:17:32;21.20;99.90
52869;DHT22;39100;53.480;6.158;2023-06-26T04:19:57;21.10;99.90
52869;DHT22;39100;53.480;6.158;2023-06-26T04:22:23;21.00;99.90
52869;DHT22;39100;53.480;6.158;2023-06-26T04:24:49;20.90;99.90
52869;DHT22;39100;53.480;6.158;2023-06-26T04:27:14;20.90;99.90
52869;DHT22;39100;53.480;6.158;2023-06-26T04:29:40;20.80;99.90
52869;DHT22;39100;53.480;6.158;2023-06-26T04:32:06;20.60;99.90
52869;DHT22;39100;53.480;6.158;2023-06-26T04:34:32;20.50;99.90
52869;DHT22;39100;53.480;6.158;2023-06-26T04:36:59;20.40;99.90
52869;DHT22;39100;53.480;6.158;2023-06-26T04:39:24;20.20;99.90
52869;DHT22;39100;53.480;6.158;2023-06-26T04:41:50;20.00;99.90
52869;DHT22;39100;53.480;6.158;2023-06-26T04:44:16;19.80;99.90
52869;DHT22;39100;53.480;6.158;2023-06-26T04:46:41;19.70;99.90
52869;DHT22;39100;53.480;6.158;2023-06-26T04:49:08;19.60;99.90
52869;DHT22;39100;53.480;6.158;2023-06-26T04:51:33;19.30;99.90
52869;DHT22;39100;53.480;6.158;2023-06-26T04:54:03;19.30;99.90
52869;DHT22;39100;53.480;6.158;2023-06-26T04:56:29;19.20;99.90
52869;DHT22;39100;53.480;6.158;2023-06-26T04:58:56;19.20;99.90
52869;DHT22;39100;53.480;6.158;2023-06-26T05:01:21;19.20;99.90
52869;DHT22;39100;53.480;6.158;2023-06-26T05:03:47;19.10;99.90
52869;DHT22;39100;53.480;6.158;2023-06-26T05:06:13;19.10;99.90
52869;DHT22;39100;53.480;6.158;2023-06-26T05:08:38;19.00;99.90
52869;DHT22;39100;53.480;6.158;2023-06-26T05:11:04;19.00;99.90
52869;DHT22;39100;53.480;6.158;2023-06-26T05:13:29;18.90;99.90
52869;DHT22;39100;53.480;6.158;2023-06-26T05:15:55;19.00;99.90
52869;DHT22;39100;53.480;6.158;2023-06-26T05:18:20;19.00;99.90
52869;DHT22;39100;53.480;6.158;2023-06-26T05:20:46;19.00;99.90
52869;DHT22;39100;53.480;6.158;2023-06-26T05:23:12;18.90;99.90
52869;DHT22;39100;53.480;6.158;2023-06-26T05:25:38;18.90;99.90
52869;DHT22;39100;53.480;6.158;2023-06-26T05:28:04;18.90;99.90
52869;DHT22;39100;53.480;6.158;2023-06-26T05:30:31;18.80;99.90
52869;DHT22;39100;53.480;6.158;2023-06-26T05:32:59;18.80;99.90
52869;DHT22;39100;53.480;6.158;2023-06-26T05:35:28;18.80;99.90
52869;DHT22;39100;53.480;6.158;2023-06-26T05:37:56;18.70;99.90
52869;DHT22;39100;53.480;6.158;2023-06-26T05:40:22;18.60;99.90
52869;DHT22;39100;53.480;6.158;2023-06-26T05:42:48;18.60;99.90
52869;DHT22;39100;53.480;6.158;2023-06-26T05:45:13;18.70;99.90
52869;DHT22;39100;53.480;6.158;2023-06-26T05:47:39;18.70;99.90
52869;DHT22;39100;53.480;6.158;2023-06-26T05:50:07;18.60;99.90
52869;DHT22;39100;53.480;6.158;2023-06-26T05:52:33;18.70;99.90
52869;DHT22;39100;53.480;6.158;2023-06-26T05:54:59;18.80;99.90
52869;DHT22;39100;53.480;6.158;2023-06-26T05:57:27;18.80;99.90
52869;DHT22;39100;53.480;6.158;2023-06-26T05:59:53;19.00;99.90
52869;DHT22;39100;53.480;6.158;2023-06-26T06:02:19;19.20;99.90
52869;DHT22;39100;53.480;6.158;2023-06-26T06:04:45;19.20;99.90
52869;DHT22;39100;53.480;6.158;2023-06-26T06:07:11;19.20;99.90
52869;DHT22;39100;53.480;6.158;2023-06-26T06:09:37;19.30;99.90
52869;DHT22;39100;53.480;6.158;2023-06-26T06:12:04;19.30;99.90
52869;DHT22;39100;53.480;6.158;2023-06-26T06:14:31;19.30;99.90
52869;DHT22;39100;53.480;6.158;2023-06-26T06:16:57;19.30;99.90
52869;DHT22;39100;53.480;6.158;2023-06-26T06:19:23;19.50;99.90
52869;DHT22;39100;53.480;6.158;2023-06-26T06:21:48;19.50;99.90
52869;DHT22;39100;53.480;6.158;2023-06-26T06:24:14;19.70;99.90
52869;DHT22;39100;53.480;6.158;2023-06-26T06:26:39;19.90;99.90
52869;DHT22;39100;53.480;6.158;2023-06-26T06:29:05;20.00;99.90
52869;DHT22;39100;53.480;6.158;2023-06-26T06:31:31;20.10;99.90
52869;DHT22;39100;53.480;6.158;2023-06-26T06:33:57;20.10;99.90
52869;DHT22;39100;53.480;6.158;2023-06-26T06:36:22;20.30;99.90
52869;DHT22;39100;53.480;6.158;2023-06-26T06:38:48;20.30;99.90
52869;DHT22;39100;53.480;6.158;2023-06-26T06:41:14;20.40;99.90
52869;DHT22;39100;53.480;6.158;2023-06-26T06:43:39;20.40;99.90
52869;DHT22;39100;53.480;6.158;2023-06-26T06:46:05;20.50;99.90
52869;DHT22;39100;53.480;6.158;2023-06-26T06:48:31;20.40;99.90
52869;DHT22;39100;53.480;6.158;2023-06-26T06:50:57;20.50;99.90
52869;DHT22;39100;53.480;6.158;2023-06-26T06:53:23;20.50;99.90
52869;DHT22;39100;53.480;6.158;2023-06-26T06:55:51;20.50;99.90
52869;DHT22;39100;53.480;6.158;2023-06-26T06:58:17;20.50;99.90
52869;DHT22;39100;53.480;6.158;2023-06-26T07:00:44;20.70;99.90
52869;DHT22;39100;53.480;6.158;2023-06-26T07:03:10;20.80;99.90
52869;DHT22;39100;53.480;6.158;2023-06-26T07:05:36;20.80;99.90
52869;DHT22;39100;53.480;6.158;2023-06-26T07:08:02;20.70;99.90
52869;DHT22;39100;53.480;6.158;2023-06-26T07:10:28;20.80;99.90
52869;DHT22;39100;53.480;6.158;2023-06-26T07:12:54;20.80;99.90
52869;DHT22;39100;53.480;6.158;2023-06-26T07:15:19;20.80;99.90
52869;DHT22;39100;53.480;6.158;2023-06-26T07:17:45;20.80;99.90
52869;DHT22;39100;53.480;6.158;2023-06-26T07:20:11;20.90;99.90
52869;DHT22;39100;53.480;6.158;2023-06-26T07:22:41;21.10;99.90
52869;DHT22;39100;53.480;6.158;2023-06-26T07:25:06;21.10;99.90
52869;DHT22;39100;53.480;6.158;2023-06-26T07:27:36;21.30;99.90
52869;DHT22;39100;53.480;6.158;2023-06-26T07:30:02;21.20;99.90
52869;DHT22;39100;53.480;6.158;2023-06-26T07:32:28;21.40;99.90
52869;DHT22;39100;53.480;6.158;2023-06-26T07:34:53;21.40;99.90
52869;DHT22;39100;53.480;6.158;2023-06-26T07:37:19;21.40;99.90
52869;DHT22;39100;53.480;6.158;2023-06-26T07:39:44;21.50;99.90
52869;DHT22;39100;53.480;6.158;2023-06-26T07:42:10;21.30;99.90
52869;DHT22;39100;53.480;6.158;2023-06-26T07:44:35;21.50;99.90
52869;DHT22;39100;53.480;6.158;2023-06-26T07:47:02;21.60;99.90
52869;DHT22;39100;53.480;6.158;2023-06-26T07:49:27;21.60;99.90
52869;DHT22;39100;53.480;6.158;2023-06-26T07:51:53;21.50;99.90
52869;DHT22;39100;53.480;6.158;2023-06-26T07:54:18;21.60;99.90
52869;DHT22;39100;53.480;6.158;2023-06-26T07:56:59;21.70;99.90
52869;DHT22;39100;53.480;6.158;2023-06-26T07:59:27;21.60;99.90
52869;DHT22;39100;53.480;6.158;2023-06-26T08:01:54;21.60;99.90
52869;DHT22;39100;53.480;6.158;2023-06-26T08:04:21;21.70;99.90
52869;DHT22;39100;53.480;6.158;2023-06-26T08:06:55;21.70;99.90
52869;DHT22;39100;53.480;6.158;2023-06-26T08:09:23;21.80;99.90
52869;DHT22;39100;53.480;6.158;2023-06-26T08:11:49;21.80;99.90
52869;DHT22;39100;53.480;6.158;2023-06-26T08:14:15;22.30;99.90
52869;DHT22;39100;53.480;6.158;2023-06-26T08:16:42;21.70;99.90
52869;DHT22;39100;53.480;6.158;2023-06-26T08:19:09;21.60;99.90
52869;DHT22;39100;53.480;6.158;2023-06-26T08:21:35;21.90;99.90
52869;DHT22;39100;53.480;6.158;2023-06-26T08:24:01;21.80;99.90
52869;DHT22;39100;53.480;6.158;2023-06-26T08:26:27;21.80;99.90
52869;DHT22;39100;53.480;6.158;2023-06-26T08:28:53;21.80;99.90
52869;DHT22;39100;53.480;6.158;2023-06-26T08:31:19;21.70;99.90
52869;DHT22;39100;53.480;6.158;2023-06-26T08:33:44;21.70;99.90
52869;DHT22;39100;53.480;6.158;2023-06-26T08:36:10;21.90;99.90
52869;DHT22;39100;53.480;6.158;2023-06-26T08:38:35;21.70;99.90
52869;DHT22;39100;53.480;6.158;2023-06-26T08:41:01;21.60;99.90
52869;DHT22;39100;53.480;6.158;2023-06-26T08:43:27;21.60;99.90
52869;DHT22;39100;53.480;6.158;2023-06-26T08:45:53;21.50;99.90
52869;DHT22;39100;53.480;6.158;2023-06-26T08:48:20;21.40;99.90
52869;DHT22;39100;53.480;6.158;2023-06-26T08:50:48;21.60;99.90
52869;DHT22;39100;53.480;6.158;2023-06-26T08:53:29;21.60;99.90
52869;DHT22;39100;53.480;6.158;2023-06-26T08:55:59;21.60;99.90
52869;DHT22;39100;53.480;6.158;2023-06-26T08:58:25;21.70;99.90
52869;DHT22;39100;53.480;6.158;2023-06-26T09:00:52;21.70;99.90
52869;DHT22;39100;53.480;6.158;2023-06-26T09:03:17;21.70;99.90
52869;DHT22;39100;53.480;6.158;2023-06-26T09:05:43;21.60;99.90
52869;DHT22;39100;53.480;6.158;2023-06-26T09:08:09;21.40;99.90
52869;DHT22;39100;53.480;6.158;2023-06-26T09:10:36;21.50;99.90
52869;DHT22;39100;53.480;6.158;2023-06-26T09:13:02;21.20;99.90
52869;DHT22;39100;53.480;6.158;2023-06-26T09:15:37;21.10;99.90
52869;DHT22;39100;53.480;6.158;2023-06-26T09:18:04;21.00;99.90
52869;DHT22;39100;53.480;6.158;2023-06-26T09:20:30;21.00;99.90
52869;DHT22;39100;53.480;6.158;2023-06-26T09:22:59;21.00;99.90
52869;DHT22;39100;53.480;6.158;2023-06-26T09:25:25;20.90;99.90
52869;DHT22;39100;53.480;6.158;2023-06-26T09:27:52;20.80;99.90
52869;DHT22;39100;53.480;6.158;2023-06-26T09:30:17;21.00;99.90
52869;DHT22;39100;53.480;6.158;2023-06-26T09:32:44;21.10;99.90
52869;DHT22;39100;53.480;6.158;2023-06-26T09:35:10;21.30;99.90
52869;DHT22;39100;53.480;6.158;2023-06-26T09:37:35;21.50;99.90
52869;DHT22;39100;53.480;6.158;2023-06-26T09:40:01;21.50;99.90
52869;DHT22;39100;53.480;6.158;2023-06-26T09:42:27;21.70;99.90
52869;DHT22;39100;53.480;6.158;2023-06-26T09:44:52;21.70;99.90
52869;DHT22;39100;53.480;6.158;2023-06-26T09:47:19;21.70;99.90
52869;DHT22;39100;53.480;6.158;2023-06-26T09:49:45;21.80;99.90
52869;DHT22;39100;53.480;6.158;2023-06-26T09:52:15;22.10;99.90
52869;DHT22;39100;53.480;6.158;2023-06-26T09:54:45;22.10;99.90
52869;DHT22;39100;53.480;6.158;2023-06-26T09:57:13;22.30;99.90
52869;DHT22;39100;53.480;6.158;2023-06-26T09:59:40;22.20;99.90
52869;DHT22;39100;53.480;6.158;2023-06-26T10:02:05;22.30;99.90
52869;DHT22;39100;53.480;6.158;2023-06-26T10:04:32;22.60;99.90
52869;DHT22;39100;53.480;6.158;2023-06-26T10:07:00;22.60;99.90
52869;DHT22;39100;53.480;6.158;2023-06-26T10:09:27;22.30;99.90
52869;DHT22;39100;53.480;6.158;2023-06-26T10:12:21;22.40;99.90
52869;DHT22;39100;53.480;6.158;2023-06-26T10:14:49;22.20;99.90
52869;DHT22;39100;53.480;6.158;2023-06-26T10:17:18;22.20;99.90
52869;DHT22;39100;53.480;6.158;2023-06-26T10:19:45;22.10;99.90
52869;DHT22;39100;53.480;6.158;2023-06-26T10:22:18;22.10;99.90
52869;DHT22;39100;53.480;6.158;2023-06-26T10:24:47;22.10;99.90
52869;DHT22;39100;53.480;6.158;2023-06-26T10:27:18;22.20;99.90
52869;DHT22;39100;53.480;6.158;2023-06-26T10:30:05;22.10;99.90
52869;DHT22;39100;53.480;6.158;2023-06-26T10:32:32;22.20;99.90
52869;DHT22;39100;53.480;6.158;2023-06-26T10:34:58;22.40;99.90
52869;DHT22;39100;53.480;6.158;2023-06-26T10:37:48;22.20;99.90
52869;DHT22;39100;53.480;6.158;2023-06-26T10:40:20;22.40;99.90
52869;DHT22;39100;53.480;6.158;2023-06-26T10:42:46;22.50;99.90
52869;DHT22;39100;53.480;6.158;2023-06-26T10:45:20;22.30;99.90
52869;DHT22;39100;53.480;6.158;2023-06-26T10:47:47;22.30;99.90
52869;DHT22;39100;53.480;6.158;2023-06-26T10:52:42;22.30;99.90
52869;DHT22;39100;53.480;6.158;2023-06-26T10:55:08;22.50;99.90
52869;DHT22;39100;53.480;6.158;2023-06-26T10:57:36;22.50;99.90
52869;DHT22;39100;53.480;6.158;2023-06-26T11:00:10;22.70;99.90
52869;DHT22;39100;53.480;6.158;2023-06-26T11:02:56;22.60;99.90
52869;DHT22;39100;53.480;6.158;2023-06-26T11:05:32;22.60;99.90
52869;DHT22;39100;53.480;6.158;2023-06-26T11:08:09;22.60;99.90
52869;DHT22;39100;53.480;6.158;2023-06-26T11:10:53;22.60;99.90
52869;DHT22;39100;53.480;6.158;2023-06-26T11:13:20;22.40;99.90
52869;DHT22;39100;53.480;6.158;2023-06-26T11:15:46;22.40;99.90
52869;DHT22;39100;53.480;6.158;2023-06-26T11:18:13;22.50;99.90
52869;DHT22;39100;53.480;6.158;2023-06-26T11:20:39;22.80;99.90
52869;DHT22;39100;53.480;6.158;2023-06-26T11:23:05;22.60;99.90
52869;DHT22;39100;53.480;6.158;2023-06-26T11:25:34;22.70;99.90
52869;DHT22;39100;53.480;6.158;2023-06-26T11:28:01;22.60;99.90
52869;DHT22;39100;53.480;6.158;2023-06-26T11:30:27;22.60;99.90
52869;DHT22;39100;53.480;6.158;2023-06-26T11:32:52;22.60;99.90
52869;DHT22;39100;53.480;6.158;2023-06-26T11:35:25;22.70;99.90
52869;DHT22;39100;53.480;6.158;2023-06-26T11:37:59;23.20;99.90
52869;DHT22;39100;53.480;6.158;2023-06-26T11:40:29;22.80;99.90
52869;DHT22;39100;53.480;6.158;2023-06-26T11:43:00;22.90;99.90
52869;DHT22;39100;53.480;6.158;2023-06-26T11:45:31;23.00;99.90
52869;DHT22;39100;53.480;6.158;2023-06-26T11:47:58;23.00;99.90
52869;DHT22;39100;53.480;6.158;2023-06-26T11:50:25;22.80;99.90
52869;DHT22;39100;53.480;6.158;2023-06-26T11:52:56;22.70;99.90
52869;DHT22;39100;53.480;6.158;2023-06-26T11:55:26;22.40;99.90
52869;DHT22;39100;53.480;6.158;2023-06-26T11:57:56;22.40;99.90
52869;DHT22;39100;53.480;6.158;2023-06-26T12:00:22;22.10;99.90
52869;DHT22;39100;53.480;6.158;2023-06-26T12:02:48;22.30;99.90
52869;DHT22;39100;53.480;6.158;2023-06-26T12:05:15;22.20;99.90
52869;DHT22;39100;53.480;6.158;2023-06-26T12:07:42;22.20;99.90
52869;DHT22;39100;53.480;6.158;2023-06-26T12:10:10;22.20;99.90
52869;DHT22;39100;53.480;6.158;2023-06-26T12:12:36;22.30;99.90
52869;DHT22;39100;53.480;6.158;2023-06-26T12:15:02;22.30;99.90
52869;DHT22;39100;53.480;6.158;2023-06-26T12:17:28;22.50;99.90
52869;DHT22;39100;53.480;6.158;2023-06-26T12:19:53;22.50;99.90
52869;DHT22;39100;53.480;6.158;2023-06-26T12:22:19;22.70;99.90
52869;DHT22;39100;53.480;6.158;2023-06-26T12:24:45;22.60;99.90
52869;DHT22;39100;53.480;6.158;2023-06-26T12:27:13;22.60;99.90
52869;DHT22;39100;53.480;6.158;2023-06-26T12:29:45;22.60;99.90
52869;DHT22;39100;53.480;6.158;2023-06-26T12:32:10;22.40;99.90
52869;DHT22;39100;53.480;6.158;2023-06-26T12:34:38;22.40;99.90
52869;DHT22;39100;53.480;6.158;2023-06-26T12:37:11;22.30;99.90
52869;DHT22;39100;53.480;6.158;2023-06-26T12:39:46;22.40;99.90
52869;DHT22;39100;53.480;6.158;2023-06-26T12:42:20;22.40;99.90
52869;DHT22;39100;53.480;6.158;2023-06-26T12:44:46;22.60;99.90
52869;DHT22;39100;53.480;6.158;2023-06-26T12:47:14;22.80;99.90
52869;DHT22;39100;53.480;6.158;2023-06-26T12:49:41;22.90;99.90
52869;DHT22;39100;53.480;6.158;2023-06-26T12:52:11;22.80;99.90
52869;DHT22;39100;53.480;6.158;2023-06-26T12:54:39;22.60;99.90
52869;DHT22;39100;53.480;6.158;2023-06-26T12:57:06;23.00;99.90
52869;DHT22;39100;53.480;6.158;2023-06-26T12:59:32;22.90;99.90
52869;DHT22;39100;53.480;6.158;2023-06-26T13:01:58;22.90;99.90
52869;DHT22;39100;53.480;6.158;2023-06-26T13:04:24;22.70;99.90
52869;DHT22;39100;53.480;6.158;2023-06-26T13:06:50;22.50;99.90
52869;DHT22;39100;53.480;6.158;2023-06-26T13:09:17;22.50;99.90
52869;DHT22;39100;53.480;6.158;2023-06-26T13:11:43;22.60;99.90
52869;DHT22;39100;53.480;6.158;2023-06-26T13:14:08;22.70;99.90
52869;DHT22;39100;53.480;6.158;2023-06-26T13:16:34;22.80;99.90
52869;DHT22;39100;53.480;6.158;2023-06-26T13:19:00;22.50;99.90
52869;DHT22;39100;53.480;6.158;2023-06-26T13:21:27;22.70;99.90
52869;DHT22;39100;53.480;6.158;2023-06-26T13:23:53;22.60;99.90
52869;DHT22;39100;53.480;6.158;2023-06-26T13:26:20;22.80;99.90
52869;DHT22;39100;53.480;6.158;2023-06-26T13:28:47;23.00;99.90
52869;DHT22;39100;53.480;6.158;2023-06-26T13:31:13;23.00;99.90
52869;DHT22;39100;53.480;6.158;2023-06-26T13:33:39;23.40;99.90
52869;DHT22;39100;53.480;6.158;2023-06-26T13:36:05;23.00;99.90
52869;DHT22;39100;53.480;6.158;2023-06-26T13:38:33;23.10;99.90
52869;DHT22;39100;53.480;6.158;2023-06-26T13:41:00;23.20;99.90
52869;DHT22;39100;53.480;6.158;2023-06-26T13:43:29;22.90;99.90
52869;DHT22;39100;53.480;6.158;2023-06-26T13:45:55;23.20;99.90
52869;DHT22;39100;53.480;6.158;2023-06-26T13:48:21;23.30;99.90
52869;DHT22;39100;53.480;6.158;2023-06-26T13:50:49;23.20;99.90
52869;DHT22;39100;53.480;6.158;2023-06-26T13:53:15;22.90;99.90
52869;DHT22;39100;53.480;6.158;2023-06-26T13:55:41;23.30;99.90
52869;DHT22;39100;53.480;6.158;2023-06-26T13:58:07;23.20;99.90
52869;DHT22;39100;53.480;6.158;2023-06-26T14:00:32;23.30;99.90
52869;DHT22;39100;53.480;6.158;2023-06-26T14:02:59;23.20;99.90
52869;DHT22;39100;53.480;6.158;2023-06-26T14:05:25;23.00;99.90
52869;DHT22;39100;53.480;6.158;2023-06-26T14:07:51;23.10;99.90
52869;DHT22;39100;53.480;6.158;2023-06-26T14:10:16;23.10;99.90
52869;DHT22;39100;53.480;6.158;2023-06-26T14:12:42;23.00;99.90
52869;DHT22;39100;53.480;6.158;2023-06-26T14:15:08;23.00;99.90
52869;DHT22;39100;53.480;6.158;2023-06-26T14:17:33;23.00;99.90
52869;DHT22;39100;53.480;6.158;2023-06-26T14:19:59;22.90;99.90
52869;DHT22;39100;53.480;6.158;2023-06-26T14:22:25;22.90;99.90
52869;DHT22;39100;53.480;6.158;2023-06-26T14:24:51;23.00;99.90
52869;DHT22;39100;53.480;6.158;2023-06-26T14:27:16;23.30;99.90
52869;DHT22;39100;53.480;6.158;2023-06-26T14:29:42;23.10;99.90
52869;DHT22;39100;53.480;6.158;2023-06-26T14:32:07;23.10;99.90
52869;DHT22;39100;53.480;6.158;2023-06-26T14:34:33;23.10;99.90
52869;DHT22;39100;53.480;6.158;2023-06-26T14:36:59;23.10;99.90
52869;DHT22;39100;53.480;6.158;2023-06-26T14:39:24;23.00;99.90
52869;DHT22;39100;53.480;6.158;2023-06-26T14:41:50;23.10;99.90
52869;DHT22;39100;53.480;6.158;2023-06-26T14:44:16;23.40;99.90
52869;DHT22;39100;53.480;6.158;2023-06-26T14:46:42;23.10;99.90
52869;DHT22;39100;53.480;6.158;2023-06-26T14:49:07;23.00;99.90
52869;DHT22;39100;53.480;6.158;2023-06-26T14:51:33;23.20;99.90
52869;DHT22;39100;53.480;6.158;2023-06-26T14:53:59;23.10;99.90
52869;DHT22;39100;53.480;6.158;2023-06-26T14:56:25;23.10;99.90
52869;DHT22;39100;53.480;6.158;2023-06-26T14:58:50;23.00;99.90
52869;DHT22;39100;53.480;6.158;2023-06-26T15:01:19;22.70;99.90
52869;DHT22;39100;53.480;6.158;2023-06-26T15:03:46;22.90;99.90
52869;DHT22;39100;53.480;6.158;2023-06-26T15:06:11;22.90;99.90
52869;DHT22;39100;53.480;6.158;2023-06-26T15:08:37;22.80;99.90
52869;DHT22;39100;53.480;6.158;2023-06-26T15:11:02;22.70;99.90
52869;DHT22;39100;53.480;6.158;2023-06-26T15:13:28;22.60;99.90
52869;DHT22;39100;53.480;6.158;2023-06-26T15:15:54;22.70;99.90
52869;DHT22;39100;53.480;6.158;2023-06-26T15:18:19;22.80;99.90
52869;DHT22;39100;53.480;6.158;2023-06-26T15:20:45;22.70;99.90
52869;DHT22;39100;53.480;6.158;2023-06-26T15:23:11;22.70;99.90
52869;DHT22;39100;53.480;6.158;2023-06-26T15:25:36;22.50;99.90
52869;DHT22;39100;53.480;6.158;2023-06-26T15:28:03;22.40;99.90
52869;DHT22;39100;53.480;6.158;2023-06-26T15:30:29;22.50;99.90
52869;DHT22;39100;53.480;6.158;2023-06-26T15:32:54;22.40;99.90
52869;DHT22;39100;53.480;6.158;2023-06-26T15:35:20;22.50;99.90
52869;DHT22;39100;53.480;6.158;2023-06-26T15:37:45;22.40;99.90